Time;durP1;ratioP1;P1;durP2;ratioP2;P2;SDS_P1;SDS_P2;PMS_P1;PMS_P2;Temp;Humidity;BMP_temperature;BMP_pressure;BME280_temperature;BME280_humidity;BME280_pressure;Samples;Min_cycle;Max_cycle;Signal;HPM_P1;HPM_P2
2023/06/21 00:01:00;;;;;;;20.73;11.75;;;;;;;;;;2520499;23;20025;-95
2023/06/21 00:02:21;;;;;;;20.92;11.90;;;;;;;;;;2520608;23;20018;-94
2023/06/21 00:03:42;;;;;;;17.85;11.38;;;;;;;;;;2520190;23;20018;-94
2023/06/21 00:05:03;;;;;;;19.88;12.75;;;;;;;;;;2519783;23;20009;-94
2023/06/21 00:06:24;;;;;;;20.33;12.15;;;;;;;;;;2518562;23;20009;-94
2023/06/21 00:07:47;;;;;;;23.98;12.80;;;;;;;;;;2517587;23;20081;-94
2023/06/21 00:09:08;;;;;;;17.40;10.57;;;;;;;;;;2520681;23;20014;-94
2023/06/21 00:10:30;;;;;;;20.73;12.35;;;;;;;;;;2520339;23;20018;-94
2023/06/21 00:11:51;;;;;;;19.45;11.75;;;;;;;;;;2519684;23;20114;-94
2023/06/21 00:13:11;;;;;;;20.00;11.38;;;;;;;;;;2519336;23;20017;-93
2023/06/21 00:14:32;;;;;;;21.25;12.00;;;;;;;;;;2520690;23;20014;-94
2023/06/21 00:15:54;;;;;;;21.30;12.10;;;;;;;;;;2521042;23;20003;-94
2023/06/21 00:17:15;;;;;;;17.98;11.55;;;;;;;;;;2518885;23;20011;-94
2023/06/21 00:18:36;;;;;;;21.60;12.63;;;;;;;;;;2518187;23;19994;-94
2023/06/21 00:19:57;;;;;;;21.48;12.15;;;;;;;;;;2520270;23;20105;-95
2023/06/21 00:21:18;;;;;;;19.52;11.63;;;;;;;;;;2517418;23;20030;-94
2023/06/21 00:22:40;;;;;;;20.85;12.32;;;;;;;;;;2519235;23;20010;-94
2023/06/21 00:24:02;;;;;;;17.38;11.82;;;;;;;;;;2515950;23;20354;-94
2023/06/21 00:25:26;;;;;;;18.75;11.73;;;;;;;;;;2521598;23;20037;-93
2023/06/21 00:26:47;;;;;;;19.80;11.80;;;;;;;;;;2519333;23;20014;-94
2023/06/21 00:28:08;;;;;;;21.63;12.80;;;;;;;;;;2520720;23;20014;-94
2023/06/21 00:29:29;;;;;;;17.95;12.93;;;;;;;;;;2519168;23;20015;-95
2023/06/21 00:30:52;;;;;;;19.60;11.50;;;;;;;;;;2520985;23;20015;-95
2023/06/21 00:32:13;;;;;;;18.42;11.93;;;;;;;;;;2520964;23;20279;-94
2023/06/21 00:33:34;;;;;;;21.20;12.63;;;;;;;;;;2518343;23;20077;-95
2023/06/21 00:34:55;;;;;;;19.85;12.45;;;;;;;;;;2518296;23;20011;-95
2023/06/21 00:36:17;;;;;;;21.58;12.93;;;;;;;;;;2520113;23;20010;-94
2023/06/21 00:37:40;;;;;;;25.20;12.65;;;;;;;;;;2520700;23;20508;-94
2023/06/21 00:39:01;;;;;;;19.00;12.50;;;;;;;;;;2519524;23;20022;-94
2023/06/21 00:40:25;;;;;;;23.88;13.75;;;;;;;;;;2519604;23;20002;-94
2023/06/21 00:41:46;;;;;;;18.88;13.05;;;;;;;;;;2520192;23;20069;-93
2023/06/21 00:43:07;;;;;;;27.65;15.50;;;;;;;;;;2519403;23;20011;-94
2023/06/21 00:44:28;;;;;;;25.88;13.32;;;;;;;;;;2518534;23;20010;-94
2023/06/21 00:45:49;;;;;;;21.48;12.98;;;;;;;;;;2517300;23;20010;-95
2023/06/21 00:47:10;;;;;;;20.48;13.30;;;;;;;;;;2519787;23;20018;-94
2023/06/21 00:48:31;;;;;;;20.30;12.82;;;;;;;;;;2520474;23;20014;-94
2023/06/21 00:49:52;;;;;;;21.88;13.07;;;;;;;;;;2519631;23;20014;-95
2023/06/21 00:51:13;;;;;;;18.35;11.95;;;;;;;;;;2519922;23;20070;-94
2023/06/21 00:52:37;;;;;;;21.90;13.77;;;;;;;;;;2520440;23;20033;-94
2023/06/21 00:53:58;;;;;;;27.50;15.13;;;;;;;;;;2520461;23;20015;-93
2023/06/21 00:55:19;;;;;;;18.67;12.70;;;;;;;;;;2519087;23;20007;-96
2023/06/21 00:56:40;;;;;;;22.92;12.98;;;;;;;;;;2519325;23;20021;-93
2023/06/21 00:58:01;;;;;;;20.30;12.65;;;;;;;;;;2523671;23;20006;-94
2023/06/21 00:59:23;;;;;;;19.77;13.10;;;;;;;;;;2525346;23;20010;-94
2023/06/21 01:00:44;;;;;;;19.13;11.95;;;;;;;;;;2520456;23;20018;-91
2023/06/21 01:02:06;;;;;;;;;;;;;;;;;;2526341;23;20029;-90
2023/06/21 01:03:27;;;;;;;23.48;12.65;;;;;;;;;;2520537;23;20277;-74
2023/06/21 01:04:49;;;;;;;18.85;12.38;;;;;;;;;;2514648;23;20339;-74
2023/06/21 01:06:24;;;;;;;21.55;14.02;;;;;;;;;;2516784;23;20014;-74
2023/06/21 01:07:54;;;;;;;18.70;12.43;;;;;;;;;;2518196;23;20021;-74
2023/06/21 01:09:32;;;;;;;23.38;13.43;;;;;;;;;;2516254;23;20016;-74
2023/06/21 01:11:13;;;;;;;22.33;13.38;;;;;;;;;;2519015;23;20014;-74
2023/06/21 01:12:34;;;;;;;20.88;13.10;;;;;;;;;;2519042;23;20406;-74
2023/06/21 01:14:01;;;;;;;26.73;14.93;;;;;;;;;;2517383;23;20309;-74
2023/06/21 01:15:24;;;;;;;21.15;12.63;;;;;;;;;;2518294;23;20125;-76
2023/06/21 01:16:46;;;;;;;23.52;13.75;;;;;;;;;;2518450;23;20011;-74
2023/06/21 01:18:07;;;;;;;;;;;;;;;;;;2515881;23;20033;-74
2023/06/21 01:19:47;;;;;;;31.55;15.93;;;;;;;;;;2516712;23;19955;-74
2023/06/21 01:21:09;;;;;;;21.85;13.15;;;;;;;;;;2516800;23;20006;-74
2023/06/21 01:22:40;;;;;;;24.60;13.23;;;;;;;;;;2516376;23;20010;-74
2023/06/21 01:24:22;;;;;;;20.98;13.80;;;;;;;;;;2518560;23;20444;-74
2023/06/21 01:25:46;;;;;;;26.23;14.77;;;;;;;;;;2516247;23;20038;-74
2023/06/21 01:27:15;;;;;;;19.60;12.40;;;;;;;;;;2520967;23;20006;-74
2023/06/21 01:28:43;;;;;;;23.67;14.00;;;;;;;;;;2516902;23;20478;-74
2023/06/21 01:30:05;;;;;;;23.30;13.50;;;;;;;;;;2516216;23;20336;-74
2023/06/21 01:31:27;;;;;;;;;;;;;;;;;;2514331;23;20316;-74
2023/06/21 01:32:48;;;;;;;26.13;14.23;;;;;;;;;;2519455;23;19912;-74
2023/06/21 01:34:10;;;;;;;30.63;15.07;;;;;;;;;;2515446;23;20423;-74
2023/06/21 01:35:31;;;;;;;21.00;13.75;;;;;;;;;;2517526;23;20013;-74
2023/06/21 01:36:52;;;;;;;19.38;12.85;;;;;;;;;;2518915;23;20010;-74
2023/06/21 01:38:12;;;;;;;23.98;14.00;;;;;;;;;;2513453;23;20017;-74
2023/06/21 01:39:33;;;;;;;23.55;13.90;;;;;;;;;;2517657;23;20017;-74
2023/06/21 01:40:54;;;;;;;27.63;15.73;;;;;;;;;;2512187;23;20487;-74
2023/06/21 01:42:15;;;;;;;31.77;16.42;;;;;;;;;;2518521;23;20432;-74
2023/06/21 01:43:36;;;;;;;31.83;17.20;;;;;;;;;;2517937;23;20010;-73
2023/06/21 01:44:57;;;;;;;23.05;15.23;;;;;;;;;;2515557;23;20011;-74
2023/06/21 01:46:20;;;;;;;26.10;15.48;;;;;;;;;;2512544;23;20523;-74
2023/06/21 01:47:42;;;;;;;27.23;15.80;;;;;;;;;;2518886;23;20345;-74
2023/06/21 01:49:06;;;;;;;27.90;14.45;;;;;;;;;;2516846;23;20340;-74
2023/06/21 01:50:27;;;;;;;22.60;14.38;;;;;;;;;;2516126;23;20336;-74
2023/06/21 01:51:48;;;;;;;24.33;14.38;;;;;;;;;;2517287;23;20010;-74
2023/06/21 01:53:10;;;;;;;27.58;15.73;;;;;;;;;;2516269;23;20531;-74
2023/06/21 01:54:33;;;;;;;24.13;14.38;;;;;;;;;;2511987;23;20041;-74
2023/06/21 01:55:56;;;;;;;24.05;15.07;;;;;;;;;;2516035;23;20006;-74
2023/06/21 01:57:17;;;;;;;27.73;15.18;;;;;;;;;;2512357;23;20015;-74
2023/06/21 01:58:38;;;;;;;28.73;15.15;;;;;;;;;;2515825;23;20021;-74
2023/06/21 02:00:00;;;;;;;26.67;14.73;;;;;;;;;;2517899;23;20014;-74
2023/06/21 02:01:24;;;;;;;28.55;15.32;;;;;;;;;;2511855;23;20029;-73
2023/06/21 02:02:48;;;;;;;24.63;14.57;;;;;;;;;;2516926;23;20006;-74
2023/06/21 02:04:10;;;;;;;26.27;15.27;;;;;;;;;;2527524;23;20344;-74
2023/06/21 02:05:32;;;;;;;22.92;13.85;;;;;;;;;;2530858;23;20014;-71
2023/06/21 02:06:53;;;;;;;35.63;17.77;;;;;;;;;;2525541;23;20452;-71
2023/06/21 02:08:18;;;;;;;31.27;16.40;;;;;;;;;;2526632;23;20010;-71
2023/06/21 02:09:39;;;;;;;31.80;16.25;;;;;;;;;;2524522;23;20368;-71
2023/06/21 02:11:02;;;;;;;37.77;17.70;;;;;;;;;;2512743;23;20441;-71
2023/06/21 02:12:30;;;;;;;38.72;18.00;;;;;;;;;;2511018;23;20010;-71
2023/06/21 02:13:52;;;;;;;36.67;16.67;;;;;;;;;;2509296;23;20077;-71
2023/06/21 02:15:13;;;;;;;40.53;19.77;;;;;;;;;;2519868;23;20088;-72
2023/06/21 02:16:34;;;;;;;42.60;18.73;;;;;;;;;;2522882;23;20085;-71
2023/06/21 02:17:55;;;;;;;36.83;16.75;;;;;;;;;;2527824;23;20025;-74
2023/06/21 02:19:16;;;;;;;34.25;17.45;;;;;;;;;;2530078;23;20094;-74
2023/06/21 02:20:37;;;;;;;35.38;17.30;;;;;;;;;;2511593;23;20014;-73
2023/06/21 02:21:58;;;;;;;36.37;17.50;;;;;;;;;;2521365;23;20432;-73
2023/06/21 02:23:19;;;;;;;25.85;14.55;;;;;;;;;;2529591;23;20392;-74
2023/06/21 02:24:40;;;;;;;23.95;13.77;;;;;;;;;;2528405;23;20036;-74
2023/06/21 02:26:01;;;;;;;24.38;14.05;;;;;;;;;;2530330;23;20373;-74
2023/06/21 02:27:22;;;;;;;28.15;15.68;;;;;;;;;;2516809;23;20018;-73
2023/06/21 02:28:43;;;;;;;28.60;15.48;;;;;;;;;;2525038;23;20014;-74
2023/06/21 02:30:05;;;;;;;24.15;14.95;;;;;;;;;;2528567;23;20010;-73
2023/06/21 02:31:26;;;;;;;31.63;16.38;;;;;;;;;;2528206;23;20022;-74
2023/06/21 02:32:47;;;;;;;28.52;14.13;;;;;;;;;;2529505;23;20021;-74
2023/06/21 02:34:07;;;;;;;25.55;14.57;;;;;;;;;;2529940;23;20037;-74
2023/06/21 02:35:28;;;;;;;30.20;16.38;;;;;;;;;;2529827;23;20348;-74
2023/06/21 02:36:53;;;;;;;23.08;14.18;;;;;;;;;;2516936;23;20022;-74
2023/06/21 02:38:14;;;;;;;25.65;14.73;;;;;;;;;;2524789;23;20010;-74
2023/06/21 02:39:35;;;;;;;22.98;13.98;;;;;;;;;;2532403;23;20006;-74
2023/06/21 02:40:56;;;;;;;28.17;15.35;;;;;;;;;;2531536;23;20702;-74
2023/06/21 02:42:16;;;;;;;20.88;13.70;;;;;;;;;;2531520;23;20010;-74
2023/06/21 02:43:37;;;;;;;26.85;14.95;;;;;;;;;;2515725;23;20010;-74
2023/06/21 02:44:58;;;;;;;28.95;15.13;;;;;;;;;;2526703;23;20025;-74
2023/06/21 02:46:20;;;;;;;24.17;13.50;;;;;;;;;;2530419;23;20458;-74
2023/06/21 02:47:41;;;;;;;27.27;14.75;;;;;;;;;;2530803;23;20351;-74
2023/06/21 02:49:02;;;;;;;27.55;15.15;;;;;;;;;;2513285;23;20010;-74
2023/06/21 02:50:23;;;;;;;31.95;16.65;;;;;;;;;;2524163;23;20013;-74
2023/06/21 02:51:48;;;;;;;24.38;14.55;;;;;;;;;;2532269;23;20014;-74
2023/06/21 02:53:08;;;;;;;29.08;14.23;;;;;;;;;;2529193;23;20017;-74
2023/06/21 02:54:29;;;;;;;28.48;16.20;;;;;;;;;;2527259;23;20010;-75
2023/06/21 02:55:50;;;;;;;34.88;16.27;;;;;;;;;;2519263;23;20017;-74
2023/06/21 02:57:11;;;;;;;32.15;17.25;;;;;;;;;;2523536;23;20328;-74
2023/06/21 02:58:33;;;;;;;23.20;14.32;;;;;;;;;;2528020;23;20014;-74
2023/06/21 02:59:53;;;;;;;26.88;15.63;;;;;;;;;;2529075;23;20056;-74
2023/06/21 03:01:16;;;;;;;26.33;16.13;;;;;;;;;;2516550;23;20011;-74
2023/06/21 03:02:38;;;;;;;;;;;;;;;;;;2524951;23;20013;-74
2023/06/21 03:03:59;;;;;;;22.27;14.55;;;;;;;;;;2530653;23;19923;-74
2023/06/21 03:05:20;;;;;;;26.83;16.83;;;;;;;;;;2530809;23;20014;-74
2023/06/21 03:06:41;;;;;;;25.90;15.68;;;;;;;;;;2533685;23;20403;-74
2023/06/21 03:08:09;;;;;;;33.55;17.33;;;;;;;;;;2518167;23;20502;-74
2023/06/21 03:09:30;;;;;;;27.38;16.38;;;;;;;;;;2527293;23;20014;-74
2023/06/21 03:10:51;;;;;;;23.67;14.57;;;;;;;;;;2531110;23;20057;-73
2023/06/21 03:12:12;;;;;;;29.00;15.90;;;;;;;;;;2529790;23;20296;-74
2023/06/21 03:13:33;;;;;;;34.60;17.27;;;;;;;;;;2532242;23;20075;-74
2023/06/21 03:14:54;;;;;;;29.50;17.67;;;;;;;;;;2516245;23;20073;-74
2023/06/21 03:16:15;;;;;;;30.92;16.67;;;;;;;;;;2528618;23;20347;-74
2023/06/21 03:17:36;;;;;;;28.13;16.05;;;;;;;;;;2528720;23;20061;-74
2023/06/21 03:18:57;;;;;;;40.45;20.20;;;;;;;;;;2529770;23;20014;-74
2023/06/21 03:20:18;;;;;;;26.58;15.98;;;;;;;;;;2518129;23;20392;-73
2023/06/21 03:21:39;;;;;;;36.13;17.30;;;;;;;;;;2525873;23;20017;-73
2023/06/21 03:23:00;;;;;;;26.10;16.10;;;;;;;;;;2519045;23;20065;-75
2023/06/21 03:24:21;;;;;;;32.83;17.45;;;;;;;;;;2526436;23;20010;-73
2023/06/21 03:25:42;;;;;;;31.00;16.95;;;;;;;;;;2517537;23;20408;-73
2023/06/21 03:27:03;;;;;;;30.00;16.65;;;;;;;;;;2524460;23;20010;-74
2023/06/21 03:28:24;;;;;;;28.58;16.50;;;;;;;;;;2530996;23;20375;-75
2023/06/21 03:29:45;;;;;;;27.08;16.73;;;;;;;;;;2531040;23;20010;-73
2023/06/21 03:31:06;;;;;;;32.58;18.35;;;;;;;;;;2532288;23;20006;-73
2023/06/21 03:32:27;;;;;;;27.10;16.67;;;;;;;;;;2529823;23;20032;-73
2023/06/21 03:33:47;;;;;;;30.23;16.08;;;;;;;;;;2530570;23;20388;-73
2023/06/21 03:35:09;;;;;;;29.88;17.67;;;;;;;;;;2516187;23;20026;-73
2023/06/21 03:36:30;;;;;;;28.98;17.98;;;;;;;;;;2526201;23;20006;-74
2023/06/21 03:37:51;;;;;;;31.17;16.80;;;;;;;;;;2518464;23;20015;-74
2023/06/21 03:39:11;;;;;;;29.88;17.73;;;;;;;;;;2514592;23;20440;-74
2023/06/21 03:40:32;;;;;;;36.45;19.92;;;;;;;;;;2526463;23;20014;-74
2023/06/21 03:41:53;;;;;;;31.88;18.00;;;;;;;;;;2531526;23;20014;-74
2023/06/21 03:43:15;;;;;;;28.83;17.23;;;;;;;;;;2530267;23;20006;-73
2023/06/21 03:44:36;;;;;;;27.95;17.48;;;;;;;;;;2530206;23;20021;-73
2023/06/21 03:45:58;;;;;;;29.48;16.80;;;;;;;;;;2531312;23;20454;-73
2023/06/21 03:47:20;;;;;;;30.38;18.40;;;;;;;;;;2531950;23;20053;-73
2023/06/21 03:48:41;;;;;;;29.20;17.63;;;;;;;;;;2517355;23;20018;-73
2023/06/21 03:50:02;;;;;;;25.88;16.08;;;;;;;;;;2529530;23;20090;-74
2023/06/21 03:51:23;;;;;;;29.52;17.63;;;;;;;;;;2514937;23;20007;-74
2023/06/21 03:52:44;;;;;;;28.65;16.80;;;;;;;;;;2525892;23;20017;-74
2023/06/21 03:54:04;;;;;;;27.90;16.77;;;;;;;;;;2517271;23;20017;-74
2023/06/21 03:55:25;;;;;;;31.08;18.08;;;;;;;;;;2526062;23;20010;-74
2023/06/21 03:56:46;;;;;;;28.73;17.70;;;;;;;;;;2532643;23;20010;-74
2023/06/21 03:58:07;;;;;;;28.23;17.67;;;;;;;;;;2517563;23;20010;-74
2023/06/21 03:59:28;;;;;;;29.73;16.75;;;;;;;;;;2528031;23;20012;-74
2023/06/21 04:00:49;;;;;;;23.25;15.68;;;;;;;;;;2530523;23;20025;-74
2023/06/21 04:02:10;;;;;;;27.63;16.58;;;;;;;;;;2529816;23;20006;-74
2023/06/21 04:03:31;;;;;;;25.58;16.60;;;;;;;;;;2532069;23;20029;-74
2023/06/21 04:04:51;;;;;;;25.85;16.85;;;;;;;;;;2531293;23;20025;-74
2023/06/21 04:06:13;;;;;;;24.25;15.73;;;;;;;;;;2532485;23;20462;-73
2023/06/21 04:07:33;;;;;;;24.85;16.52;;;;;;;;;;2530878;23;20454;-74
2023/06/21 04:08:54;;;;;;;29.42;17.48;;;;;;;;;;2531411;23;20450;-74
2023/06/21 04:10:16;;;;;;;23.83;16.30;;;;;;;;;;2531195;23;20428;-74
2023/06/21 04:11:37;;;;;;;31.73;19.10;;;;;;;;;;2516375;23;20418;-74
2023/06/21 04:12:58;;;;;;;27.45;17.60;;;;;;;;;;2525096;23;20021;-74
2023/06/21 04:14:19;;;;;;;36.50;19.15;;;;;;;;;;2531756;23;20028;-74
2023/06/21 04:15:40;;;;;;;33.35;17.98;;;;;;;;;;2530769;23;20018;-73
2023/06/21 04:17:00;;;;;;;31.23;18.33;;;;;;;;;;2529154;23;20013;-74
2023/06/21 04:18:21;;;;;;;26.17;16.92;;;;;;;;;;2532922;23;20021;-73
2023/06/21 04:19:42;;;;;;;32.13;17.33;;;;;;;;;;2532256;23;20019;-74
2023/06/21 04:21:03;;;;;;;26.73;16.30;;;;;;;;;;2534224;23;20435;-74
2023/06/21 04:22:25;;;;;;;30.85;18.30;;;;;;;;;;2529582;23;20014;-74
2023/06/21 04:23:45;;;;;;;29.95;17.60;;;;;;;;;;2530000;23;20073;-74
2023/06/21 04:25:07;;;;;;;36.55;18.05;;;;;;;;;;2529258;23;20022;-74
2023/06/21 04:26:28;;;;;;;31.05;18.35;;;;;;;;;;2515844;23;20376;-74
2023/06/21 04:27:49;;;;;;;28.27;16.88;;;;;;;;;;2526546;23;20387;-74
2023/06/21 04:29:10;;;;;;;30.98;17.40;;;;;;;;;;2534011;23;20014;-73
2023/06/21 04:30:33;;;;;;;30.73;18.10;;;;;;;;;;2532351;23;20029;-74
2023/06/21 04:31:55;;;;;;;31.73;18.48;;;;;;;;;;2528784;23;20018;-75
2023/06/21 04:33:16;;;;;;;29.33;17.52;;;;;;;;;;2529711;23;20017;-73
2023/06/21 04:34:36;;;;;;;34.95;18.95;;;;;;;;;;2530840;23;20080;-74
2023/06/21 04:35:57;;;;;;;35.20;19.67;;;;;;;;;;2529048;23;20013;-74
2023/06/21 04:37:18;;;;;;;38.22;19.27;;;;;;;;;;2532566;23;20017;-74
2023/06/21 04:38:39;;;;;;;28.63;17.92;;;;;;;;;;2517120;23;20325;-74
2023/06/21 04:40:00;;;;;;;30.50;18.17;;;;;;;;;;2514010;23;20015;-74
2023/06/21 04:41:21;;;;;;;33.70;18.65;;;;;;;;;;2524764;23;20013;-74
2023/06/21 04:42:42;;;;;;;31.00;18.88;;;;;;;;;;2530444;23;20021;-74
2023/06/21 04:44:03;;;;;;;30.35;19.25;;;;;;;;;;2530437;23;20006;-74
2023/06/21 04:45:25;;;;;;;28.58;17.77;;;;;;;;;;2529788;23;20096;-74
2023/06/21 04:46:46;;;;;;;31.13;18.50;;;;;;;;;;2530747;23;20021;-73
2023/06/21 04:48:07;;;;;;;35.33;19.60;;;;;;;;;;2517356;23;20388;-74
2023/06/21 04:49:29;;;;;;;33.10;20.17;;;;;;;;;;2513258;23;20014;-74
2023/06/21 04:50:50;;;;;;;34.42;18.23;;;;;;;;;;2513704;23;20011;-74
2023/06/21 04:52:12;;;;;;;28.83;17.35;;;;;;;;;;2527799;23;20029;-74
2023/06/21 04:53:33;;;;;;;36.78;19.45;;;;;;;;;;2516013;23;20044;-74
2023/06/21 04:54:59;;;;;;;30.60;19.05;;;;;;;;;;2524720;23;20016;-74
2023/06/21 04:56:21;;;;;;;37.55;19.90;;;;;;;;;;2530371;23;20018;-74
2023/06/21 04:57:42;;;;;;;38.05;21.88;;;;;;;;;;2530035;23;20006;-74
2023/06/21 04:59:03;;;;;;;33.05;19.83;;;;;;;;;;2529635;23;20324;-74
2023/06/21 05:00:24;;;;;;;42.03;20.27;;;;;;;;;;2529243;23;20014;-74
2023/06/21 05:01:45;;;;;;;41.15;20.95;;;;;;;;;;2531729;23;20006;-74
2023/06/21 05:03:06;;;;;;;32.63;20.15;;;;;;;;;;2529828;23;20017;-74
2023/06/21 05:04:27;;;;;;;34.25;19.10;;;;;;;;;;2519359;23;20110;-75
2023/06/21 05:05:48;;;;;;;34.35;20.88;;;;;;;;;;2527274;23;20010;-74
2023/06/21 05:07:09;;;;;;;31.35;19.35;;;;;;;;;;2519374;23;20371;-74
2023/06/21 05:08:29;;;;;;;33.05;19.45;;;;;;;;;;2527876;23;20018;-75
2023/06/21 05:09:50;;;;;;;31.63;18.67;;;;;;;;;;2534298;23;20006;-75
2023/06/21 05:11:12;;;;;;;34.35;20.25;;;;;;;;;;2533326;23;20351;-75
2023/06/21 05:12:33;;;;;;;34.05;20.23;;;;;;;;;;2530616;23;20018;-75
2023/06/21 05:13:53;;;;;;;34.47;20.30;;;;;;;;;;2531284;23;20032;-74
2023/06/21 05:15:14;;;;;;;38.45;20.73;;;;;;;;;;2517597;23;20021;-74
2023/06/21 05:16:35;;;;;;;36.70;21.35;;;;;;;;;;2514957;23;20010;-75
2023/06/21 05:17:56;;;;;;;33.63;19.38;;;;;;;;;;2515653;23;20454;-75
2023/06/21 05:19:17;;;;;;;37.17;20.38;;;;;;;;;;2526418;23;20017;-74
2023/06/21 05:20:38;;;;;;;34.92;21.10;;;;;;;;;;2518455;23;20089;-75
2023/06/21 05:21:59;;;;;;;36.63;21.42;;;;;;;;;;2525794;23;20010;-74
2023/06/21 05:23:20;;;;;;;36.83;21.13;;;;;;;;;;2533425;23;20347;-75
2023/06/21 05:24:41;;;;;;;37.97;21.15;;;;;;;;;;2531316;23;20021;-75
2023/06/21 05:26:02;;;;;;;34.67;22.55;;;;;;;;;;2519840;23;20019;-75
2023/06/21 05:27:23;;;;;;;41.67;23.42;;;;;;;;;;2525180;23;20400;-75
2023/06/21 05:28:43;;;;;;;37.63;21.30;;;;;;;;;;2533227;23;20021;-75
2023/06/21 05:30:05;;;;;;;36.28;21.20;;;;;;;;;;2532125;23;20017;-74
2023/06/21 05:31:28;;;;;;;40.33;22.02;;;;;;;;;;2516498;23;20432;-75
2023/06/21 05:32:49;;;;;;;40.72;21.27;;;;;;;;;;2513737;23;20835;-75
2023/06/21 05:34:10;;;;;;;34.45;21.00;;;;;;;;;;2525044;23;20018;-75
2023/06/21 05:35:31;;;;;;;38.97;23.27;;;;;;;;;;2529435;23;20021;-75
2023/06/21 05:36:52;;;;;;;45.35;23.35;;;;;;;;;;2531779;23;20013;-74
2023/06/21 05:38:13;;;;;;;34.05;20.88;;;;;;;;;;2531217;23;20014;-74
2023/06/21 05:39:34;;;;;;;43.25;23.85;;;;;;;;;;2529244;23;20010;-74
2023/06/21 05:40:56;;;;;;;36.22;21.27;;;;;;;;;;2530130;23;20395;-75
2023/06/21 05:42:17;;;;;;;37.50;21.58;;;;;;;;;;2529966;23;20377;-75
2023/06/21 05:43:38;;;;;;;36.88;21.23;;;;;;;;;;2517536;23;20017;-75
2023/06/21 05:44:59;;;;;;;37.53;22.55;;;;;;;;;;2512499;23;20015;-74
2023/06/21 05:46:19;;;;;;;38.33;21.75;;;;;;;;;;2527919;23;20018;-75
2023/06/21 05:47:40;;;;;;;43.65;23.42;;;;;;;;;;2532923;23;20013;-75
2023/06/21 05:49:01;;;;;;;34.85;20.02;;;;;;;;;;2530163;23;20053;-74
2023/06/21 05:50:22;;;;;;;42.67;23.25;;;;;;;;;;2518026;23;20010;-74
2023/06/21 05:51:43;;;;;;;34.22;21.50;;;;;;;;;;2525815;23;20412;-75
2023/06/21 05:53:04;;;;;;;42.78;23.90;;;;;;;;;;2526565;23;20010;-74
2023/06/21 05:54:25;;;;;;;49.10;24.30;;;;;;;;;;2527932;23;20276;-75
2023/06/21 05:55:46;;;;;;;34.15;20.52;;;;;;;;;;2516206;23;20018;-75
2023/06/21 05:57:07;;;;;;;40.38;21.65;;;;;;;;;;2528473;23;20014;-75
2023/06/21 05:58:29;;;;;;;37.75;20.17;;;;;;;;;;2529975;23;20017;-75
2023/06/21 05:59:50;;;;;;;42.75;22.67;;;;;;;;;;2530983;23;20434;-74
2023/06/21 06:01:11;;;;;;;41.50;22.08;;;;;;;;;;2516527;23;20026;-75
2023/06/21 06:02:32;;;;;;;34.67;21.60;;;;;;;;;;2517189;23;20074;-74
2023/06/21 06:03:53;;;;;;;38.60;22.40;;;;;;;;;;2513813;23;20356;-75
2023/06/21 06:05:13;;;;;;;38.10;21.95;;;;;;;;;;2523993;23;20032;-75
2023/06/21 06:06:35;;;;;;;32.45;19.77;;;;;;;;;;2532922;23;20010;-75
2023/06/21 06:07:56;;;;;;;45.25;22.35;;;;;;;;;;2529828;23;20010;-75
2023/06/21 06:09:17;;;;;;;39.20;20.83;;;;;;;;;;2531560;23;20017;-75
2023/06/21 06:10:38;;;;;;;31.27;19.70;;;;;;;;;;2532650;23;20006;-75
2023/06/21 06:11:59;;;;;;;36.28;19.70;;;;;;;;;;2532062;23;20320;-75
2023/06/21 06:13:20;;;;;;;35.58;20.33;;;;;;;;;;2529966;23;20367;-75
2023/06/21 06:14:41;;;;;;;33.38;19.05;;;;;;;;;;2530404;23;20010;-75
2023/06/21 06:16:02;;;;;;;39.08;20.70;;;;;;;;;;2514994;23;20014;-75
2023/06/21 06:17:23;;;;;;;41.97;23.60;;;;;;;;;;2525376;23;20435;-75
2023/06/21 06:18:44;;;;;;;34.63;19.83;;;;;;;;;;2527508;23;20014;-75
2023/06/21 06:20:06;;;;;;;37.33;20.65;;;;;;;;;;2513687;23;20058;-75
2023/06/21 06:21:26;;;;;;;31.60;18.80;;;;;;;;;;2525404;23;20062;-75
2023/06/21 06:22:47;;;;;;;40.47;21.98;;;;;;;;;;2528276;23;20010;-75
2023/06/21 06:24:08;;;;;;;42.95;21.70;;;;;;;;;;2525782;23;20407;-75
2023/06/21 06:25:29;;;;;;;34.17;19.30;;;;;;;;;;2516401;23;20018;-77
2023/06/21 06:26:50;;;;;;;27.42;16.75;;;;;;;;;;2526644;23;20010;-75
2023/06/21 06:28:14;;;;;;;42.63;20.15;;;;;;;;;;2516419;23;20424;-73
2023/06/21 06:29:35;;;;;;;35.10;19.00;;;;;;;;;;2525205;23;20013;-75
2023/06/21 06:30:56;;;;;;;34.72;18.73;;;;;;;;;;2514386;23;20014;-75
2023/06/21 06:32:17;;;;;;;27.30;16.38;;;;;;;;;;2525391;23;20538;-75
2023/06/21 06:33:37;;;;;;;37.05;18.52;;;;;;;;;;2531212;23;20021;-74
2023/06/21 06:34:58;;;;;;;33.03;17.00;;;;;;;;;;2526224;23;20440;-75
2023/06/21 06:36:19;;;;;;;38.28;19.80;;;;;;;;;;2527953;23;20029;-75
2023/06/21 06:37:40;;;;;;;27.70;15.63;;;;;;;;;;2516651;23;20403;-75
2023/06/21 06:39:01;;;;;;;26.52;16.23;;;;;;;;;;2529189;23;20014;-75
2023/06/21 06:40:22;;;;;;;27.50;16.25;;;;;;;;;;2517713;23;20010;-74
2023/06/21 06:41:43;;;;;;;33.35;18.10;;;;;;;;;;2527982;23;20075;-75
2023/06/21 06:43:06;;;;;;;26.02;15.63;;;;;;;;;;2519379;23;20014;-75
2023/06/21 06:44:26;;;;;;;26.90;16.08;;;;;;;;;;2527987;23;20043;-75
2023/06/21 06:45:47;;;;;;;37.28;19.27;;;;;;;;;;2527402;23;20022;-74
2023/06/21 06:47:08;;;;;;;25.98;15.63;;;;;;;;;;2519106;23;20018;-75
2023/06/21 06:48:29;;;;;;;24.92;14.68;;;;;;;;;;2515199;23;20026;-74
2023/06/21 06:49:50;;;;;;;25.33;14.73;;;;;;;;;;2513707;23;20038;-74
2023/06/21 06:51:11;;;;;;;24.75;15.98;;;;;;;;;;2526597;23;20451;-74
2023/06/21 06:52:32;;;;;;;21.88;14.60;;;;;;;;;;2532850;23;20014;-75
2023/06/21 06:53:53;;;;;;;22.70;12.98;;;;;;;;;;2517343;23;20014;-74
2023/06/21 06:55:14;;;;;;;25.25;13.55;;;;;;;;;;2512128;23;20226;-73
2023/06/21 06:56:35;;;;;;;18.70;11.60;;;;;;;;;;2525834;23;20009;-74
2023/06/21 06:57:58;;;;;;;26.65;14.43;;;;;;;;;;2517205;23;20349;-74
2023/06/21 06:59:18;;;;;;;22.45;13.10;;;;;;;;;;2516374;23;20007;-74
2023/06/21 07:00:39;;;;;;;23.95;13.95;;;;;;;;;;2514517;23;20038;-74
2023/06/21 07:02:00;;;;;;;18.40;12.20;;;;;;;;;;2515928;23;20429;-74
2023/06/21 07:03:21;;;;;;;27.92;15.30;;;;;;;;;;2526176;23;20010;-73
2023/06/21 07:04:42;;;;;;;22.15;12.90;;;;;;;;;;2534213;23;20030;-74
2023/06/21 07:06:03;;;;;;;27.58;14.50;;;;;;;;;;2517051;23;20018;-74
2023/06/21 07:07:24;;;;;;;26.20;15.13;;;;;;;;;;2512915;23;20014;-75
2023/06/21 07:08:46;;;;;;;25.10;15.40;;;;;;;;;;2526364;23;20018;-72
2023/06/21 07:10:08;;;;;;;25.52;14.68;;;;;;;;;;2517942;23;20348;-73
2023/06/21 07:11:29;;;;;;;22.02;13.93;;;;;;;;;;2514490;23;20356;-74
2023/06/21 07:12:50;;;;;;;23.77;15.17;;;;;;;;;;2515770;23;20392;-73
2023/06/21 07:14:10;;;;;;;23.88;14.82;;;;;;;;;;2525783;23;20105;-72
2023/06/21 07:15:32;;;;;;;27.67;16.75;;;;;;;;;;2529306;23;20013;-72
2023/06/21 07:16:53;;;;;;;28.48;16.00;;;;;;;;;;2517415;23;20436;-72
2023/06/21 07:18:13;;;;;;;21.63;14.07;;;;;;;;;;2515509;23;20010;-71
2023/06/21 07:19:34;;;;;;;26.73;16.00;;;;;;;;;;2514739;23;20006;-72
2023/06/21 07:20:55;;;;;;;25.60;16.88;;;;;;;;;;2525356;23;20018;-72
2023/06/21 07:22:16;;;;;;;21.45;14.77;;;;;;;;;;2533461;23;20010;-72
2023/06/21 07:23:37;;;;;;;24.08;15.43;;;;;;;;;;2532853;23;20018;-72
2023/06/21 07:24:58;;;;;;;26.05;15.63;;;;;;;;;;2533878;23;20013;-72
2023/06/21 07:26:19;;;;;;;19.50;13.75;;;;;;;;;;2518404;23;20037;-72
2023/06/21 07:27:40;;;;;;;21.38;14.05;;;;;;;;;;2516203;23;20018;-72
2023/06/21 07:29:01;;;;;;;22.02;15.43;;;;;;;;;;2529622;23;20006;-71
2023/06/21 07:30:22;;;;;;;25.88;15.95;;;;;;;;;;2530913;23;20010;-72
2023/06/21 07:31:43;;;;;;;24.67;15.23;;;;;;;;;;2531054;23;20297;-72
2023/06/21 07:33:05;;;;;;;25.67;15.27;;;;;;;;;;2530870;23;20010;-72
2023/06/21 07:34:26;;;;;;;22.17;16.38;;;;;;;;;;2517669;23;20006;-72
2023/06/21 07:35:46;;;;;;;25.52;15.65;;;;;;;;;;2514887;23;20018;-73
2023/06/21 07:37:07;;;;;;;19.08;13.20;;;;;;;;;;2526070;23;20156;-72
2023/06/21 07:38:28;;;;;;;23.55;13.43;;;;;;;;;;2519390;23;20010;-72
2023/06/21 07:39:49;;;;;;;20.52;13.20;;;;;;;;;;2527382;23;20223;-72
2023/06/21 07:41:10;;;;;;;23.00;13.48;;;;;;;;;;2533820;23;20014;-73
2023/06/21 07:42:31;;;;;;;21.67;13.30;;;;;;;;;;2517551;23;20321;-73
2023/06/21 07:43:52;;;;;;;22.35;15.25;;;;;;;;;;2526080;23;20014;-73
2023/06/21 07:45:13;;;;;;;26.80;14.80;;;;;;;;;;2532003;23;20009;-73
2023/06/21 07:46:33;;;;;;;22.20;14.93;;;;;;;;;;2519010;23;20049;-73
2023/06/21 07:47:54;;;;;;;20.13;13.35;;;;;;;;;;2526279;23;20384;-74
2023/06/21 07:49:15;;;;;;;23.10;14.27;;;;;;;;;;2517095;23;20101;-73
2023/06/21 07:50:36;;;;;;;19.23;12.30;;;;;;;;;;2516592;23;20336;-74
2023/06/21 07:51:57;;;;;;;21.70;12.52;;;;;;;;;;2529953;23;20006;-73
2023/06/21 07:53:18;;;;;;;25.33;14.75;;;;;;;;;;2532826;23;20036;-74
2023/06/21 07:54:39;;;;;;;23.10;14.38;;;;;;;;;;2519130;23;20013;-74
2023/06/21 07:56:00;;;;;;;20.65;13.30;;;;;;;;;;2527237;23;20013;-74